Main page
METAR-TAF:

METAR-TAF

Airports :

Larestan International Airport

Lar, Iran

latitude: 27-40-26N, longitude: 054-22-53E, elevation: 792 m

Current weather observation

The report was made 1 hour and 4 minutes ago, at 20:00 UTC
Calm wind
Temperature 32°C
Humidity 20%
Pressure 1002 hPa
Visibility 10 km or more
no clouds below 1500 m and no cumulonimbus

METAR: OISL 252000Z 00000KT CAVOK 32/06 Q1002 A2959

Time: 01:34 (21:04 UTC)

Forecast

The report was made 3 hours and 34 minutes ago, at 17:30 UTC
Forecast valid from 25 at 18 UTC to 26 at 24 UTC
Wind 8 kt from the West/Northwest
Visibility: 7000 m
Temporary
from 26 at 09 UTC to 26 at 14 UTC
Wind 12 kt from the West

TAF: OISL 251730Z 2518/2624 30008KT 7000 NSC TEMPO 2609/2614 28012KT

Weather observations and forecasts of more than 4000 airports (METAR and TAF reports).

The available stations are represented by yellow and red dots on the map.

Hover mouse over dot to see the name of the station.

Then click to see weather observations and forecasts.

To change the map : click on the green buttons with a black cross to zoom in, on the green button with a dash to zoom out, or on the green arrows for adjacent maps.


METAR-TAF: